This is the latest recevied weather packets stored in our database for station/object 1NW106. If no packets are shown the sender has not sent any weather packets the latest 10 day(s).
| Time | Temp. | Humidity | Pressure | Rain* | Wind** | Luminosity | Snow |
|---|---|---|---|---|---|---|---|
| 1787630967 | 26.11° C | 92% | 1008.4 hPa | 13.21 mm | - | - | - |
| 1787630367 | 26.11° C | 91% | 1008.4 hPa | 13.21 mm | - | - | - |
| 1787629767 | 26.11° C | 91% | 1008.3 hPa | 13.21 mm | - | - | - |
| 1787629167 | 26.11° C | 91% | 1008.4 hPa | 13.21 mm | - | - | - |
| 1787628567 | 26.11° C | 90% | 1008.5 hPa | 13.21 mm | - | - | - |
| 1787627967 | 26.67° C | 90% | 1008.3 hPa | 13.21 mm | - | - | - |
| 1787627367 | 26.67° C | 89% | 1008.4 hPa | 13.21 mm | - | - | - |
| 1787626767 | 26.67° C | 89% | 1008.3 hPa | 13.21 mm | - | - | - |
| 1787626167 | 26.67° C | 89% | 1008.2 hPa | 13.21 mm | - | - | - |
| 1787625567 | 26.67° C | 90% | 1008.1 hPa | 13.21 mm | - | - | - |
| 1787624967 | 26.11° C | 90% | 1008.1 hPa | 13.21 mm | - | - | - |
| 1787624367 | 26.67° C | 90% | 1008.1 hPa | 13.21 mm | - | - | - |
| 1787623767 | 26.67° C | 87% | 1008.5 hPa | 13.21 mm | - | - | - |
| 1787623167 | 27.22° C | 87% | 1008.5 hPa | 13.21 mm | - | - | - |
| 1787622567 | 26.67° C | 90% | 1008.1 hPa | 13.21 mm | - | - | - |
| 1787621967 | 26.11° C | 92% | 1007.7 hPa | 13.21 mm | - | - | - |
| 1787621367 | 26.11° C | 91% | 1007.7 hPa | 13.21 mm | - | - | - |
| 1787620767 | 26.11° C | 92% | 1007.6 hPa | 13.21 mm | - | - | - |
| 1787620167 | 26.11° C | 91% | 1007.7 hPa | 13.21 mm | - | - | - |
| 1787619567 | 26.11° C | 90% | 1007.6 hPa | 13.21 mm | - | - | - |
| 1787618967 | 25.56° C | 93% | 1007.2 hPa | 13.21 mm | - | - | - |
| 1787618367 | 25.56° C | 92% | 1007.2 hPa | 13.21 mm | - | - | - |
| 1787617767 | 25° C | 93% | 1007.1 hPa | 13.21 mm | - | - | - |
| 1787617167 | 25° C | 94% | 1007 hPa | 13.21 mm | - | - | - |
| 1787616567 | 25° C | 94% | 1006.8 hPa | 13.21 mm | - | - | - |
* Rain latest hour (hover to see other rain measurements)
** Current wind speed in m/s (hover to see current wind gust speed)